sensor_id;sensor_type;location;lat;lon;timestamp;temperature;humidity
14119;DHT22;7138;49.246;9.100;2022-08-19T00:02:22;20.60;99.90
14119;DHT22;7138;49.246;9.100;2022-08-19T00:04:48;20.60;99.90
14119;DHT22;7138;49.246;9.100;2022-08-19T00:07:21;20.60;99.90
14119;DHT22;7138;49.246;9.100;2022-08-19T00:09:47;20.60;99.90
14119;DHT22;7138;49.246;9.100;2022-08-19T00:12:13;20.60;99.90
14119;DHT22;7138;49.246;9.100;2022-08-19T00:14:39;20.60;99.90
14119;DHT22;7138;49.246;9.100;2022-08-19T00:17:08;20.60;99.90
14119;DHT22;7138;49.246;9.100;2022-08-19T00:19:36;20.60;99.90
14119;DHT22;7138;49.246;9.100;2022-08-19T00:22:03;20.50;99.90
14119;DHT22;7138;49.246;9.100;2022-08-19T00:24:31;20.60;99.90
14119;DHT22;7138;49.246;9.100;2022-08-19T00:26:57;20.60;99.90
14119;DHT22;7138;49.246;9.100;2022-08-19T00:29:24;20.50;99.90
14119;DHT22;7138;49.246;9.100;2022-08-19T00:31:51;20.60;99.90
14119;DHT22;7138;49.246;9.100;2022-08-19T00:34:23;20.60;99.90
14119;DHT22;7138;49.246;9.100;2022-08-19T00:36:49;20.50;99.90
14119;DHT22;7138;49.246;9.100;2022-08-19T00:39:16;20.50;99.90
14119;DHT22;7138;49.246;9.100;2022-08-19T00:41:43;20.50;99.90
14119;DHT22;7138;49.246;9.100;2022-08-19T00:44:15;20.50;99.90
14119;DHT22;7138;49.246;9.100;2022-08-19T00:46:46;20.50;99.90
14119;DHT22;7138;49.246;9.100;2022-08-19T00:49:15;20.50;99.90
14119;DHT22;7138;49.246;9.100;2022-08-19T00:51:48;20.50;99.90
14119;DHT22;7138;49.246;9.100;2022-08-19T00:54:18;20.50;99.90
14119;DHT22;7138;49.246;9.100;2022-08-19T00:56:45;20.50;99.90
14119;DHT22;7138;49.246;9.100;2022-08-19T00:59:12;20.50;99.90
14119;DHT22;7138;49.246;9.100;2022-08-19T01:01:42;20.50;99.90
14119;DHT22;7138;49.246;9.100;2022-08-19T01:04:09;20.50;99.90
14119;DHT22;7138;49.246;9.100;2022-08-19T01:06:37;20.50;99.90
14119;DHT22;7138;49.246;9.100;2022-08-19T01:09:07;20.40;99.90
14119;DHT22;7138;49.246;9.100;2022-08-19T01:11:37;20.40;99.90
14119;DHT22;7138;49.246;9.100;2022-08-19T01:14:07;20.40;99.90
14119;DHT22;7138;49.246;9.100;2022-08-19T01:16:35;20.40;99.90
14119;DHT22;7138;49.246;9.100;2022-08-19T01:19:04;20.30;99.90
14119;DHT22;7138;49.246;9.100;2022-08-19T01:21:42;20.40;99.90
14119;DHT22;7138;49.246;9.100;2022-08-19T01:24:15;20.30;99.90
14119;DHT22;7138;49.246;9.100;2022-08-19T01:26:44;20.30;99.90
14119;DHT22;7138;49.246;9.100;2022-08-19T01:29:11;20.30;99.90
14119;DHT22;7138;49.246;9.100;2022-08-19T01:31:37;20.30;99.90
14119;DHT22;7138;49.246;9.100;2022-08-19T01:34:05;20.40;99.90
14119;DHT22;7138;49.246;9.100;2022-08-19T01:36:33;20.30;99.90
14119;DHT22;7138;49.246;9.100;2022-08-19T01:39:05;20.30;99.90
14119;DHT22;7138;49.246;9.100;2022-08-19T01:41:35;20.30;99.90
14119;DHT22;7138;49.246;9.100;2022-08-19T01:44:02;20.30;99.90
14119;DHT22;7138;49.246;9.100;2022-08-19T01:46:29;20.20;99.90
14119;DHT22;7138;49.246;9.100;2022-08-19T01:48:55;20.20;99.90
14119;DHT22;7138;49.246;9.100;2022-08-19T01:51:22;20.20;99.90
14119;DHT22;7138;49.246;9.100;2022-08-19T01:53:48;20.20;99.90
14119;DHT22;7138;49.246;9.100;2022-08-19T01:56:15;20.20;99.90
14119;DHT22;7138;49.246;9.100;2022-08-19T01:58:46;20.20;99.90
14119;DHT22;7138;49.246;9.100;2022-08-19T02:01:16;20.20;99.90
14119;DHT22;7138;49.246;9.100;2022-08-19T02:03:42;20.20;99.90
14119;DHT22;7138;49.246;9.100;2022-08-19T02:06:08;20.20;99.90
14119;DHT22;7138;49.246;9.100;2022-08-19T02:08:36;20.20;99.90
14119;DHT22;7138;49.246;9.100;2022-08-19T02:11:04;20.10;99.90
14119;DHT22;7138;49.246;9.100;2022-08-19T02:13:31;20.20;99.90
14119;DHT22;7138;49.246;9.100;2022-08-19T02:15:59;20.20;99.90
14119;DHT22;7138;49.246;9.100;2022-08-19T02:18:25;20.20;99.90
14119;DHT22;7138;49.246;9.100;2022-08-19T02:20:52;20.20;99.90
14119;DHT22;7138;49.246;9.100;2022-08-19T02:23:18;20.20;99.90
14119;DHT22;7138;49.246;9.100;2022-08-19T02:25:46;20.20;99.90
14119;DHT22;7138;49.246;9.100;2022-08-19T02:28:13;20.20;99.90
14119;DHT22;7138;49.246;9.100;2022-08-19T02:30:41;20.20;99.90
14119;DHT22;7138;49.246;9.100;2022-08-19T02:33:08;20.10;99.90
14119;DHT22;7138;49.246;9.100;2022-08-19T02:35:34;20.10;99.90
14119;DHT22;7138;49.246;9.100;2022-08-19T02:38:00;20.10;99.90
14119;DHT22;7138;49.246;9.100;2022-08-19T02:40:49;20.10;99.90
14119;DHT22;7138;49.246;9.100;2022-08-19T02:43:17;20.10;99.90
14119;DHT22;7138;49.246;9.100;2022-08-19T02:45:46;20.10;99.90
14119;DHT22;7138;49.246;9.100;2022-08-19T02:48:15;20.10;99.90
14119;DHT22;7138;49.246;9.100;2022-08-19T02:50:43;20.00;99.90
14119;DHT22;7138;49.246;9.100;2022-08-19T02:53:09;20.00;99.90
14119;DHT22;7138;49.246;9.100;2022-08-19T02:55:36;20.00;99.90
14119;DHT22;7138;49.246;9.100;2022-08-19T02:58:07;20.00;99.90
14119;DHT22;7138;49.246;9.100;2022-08-19T03:00:33;20.00;99.90
14119;DHT22;7138;49.246;9.100;2022-08-19T03:02:59;20.00;99.90
14119;DHT22;7138;49.246;9.100;2022-08-19T03:05:27;20.00;99.90
14119;DHT22;7138;49.246;9.100;2022-08-19T03:07:53;19.90;99.90
14119;DHT22;7138;49.246;9.100;2022-08-19T03:10:19;19.90;99.90
14119;DHT22;7138;49.246;9.100;2022-08-19T03:12:45;19.90;99.90
14119;DHT22;7138;49.246;9.100;2022-08-19T03:15:11;19.90;99.90
14119;DHT22;7138;49.246;9.100;2022-08-19T03:17:38;19.80;99.90
14119;DHT22;7138;49.246;9.100;2022-08-19T03:20:05;19.80;99.90
14119;DHT22;7138;49.246;9.100;2022-08-19T03:22:33;19.80;99.90
14119;DHT22;7138;49.246;9.100;2022-08-19T03:24:58;19.80;99.90
14119;DHT22;7138;49.246;9.100;2022-08-19T03:27:24;19.80;99.90
14119;DHT22;7138;49.246;9.100;2022-08-19T03:29:51;19.80;99.90
14119;DHT22;7138;49.246;9.100;2022-08-19T03:32:20;19.70;99.90
14119;DHT22;7138;49.246;9.100;2022-08-19T03:34:47;19.70;99.90
14119;DHT22;7138;49.246;9.100;2022-08-19T03:37:14;19.70;99.90
14119;DHT22;7138;49.246;9.100;2022-08-19T03:39:41;19.70;99.90
14119;DHT22;7138;49.246;9.100;2022-08-19T03:42:10;19.70;99.90
14119;DHT22;7138;49.246;9.100;2022-08-19T03:44:37;19.70;99.90
14119;DHT22;7138;49.246;9.100;2022-08-19T03:47:04;19.70;99.90
14119;DHT22;7138;49.246;9.100;2022-08-19T03:49:32;19.70;99.90
14119;DHT22;7138;49.246;9.100;2022-08-19T03:52:00;19.70;99.90
14119;DHT22;7138;49.246;9.100;2022-08-19T03:54:28;19.80;99.90
14119;DHT22;7138;49.246;9.100;2022-08-19T03:56:56;19.70;99.90
14119;DHT22;7138;49.246;9.100;2022-08-19T03:59:25;19.70;99.90
14119;DHT22;7138;49.246;9.100;2022-08-19T04:01:52;19.70;99.90
14119;DHT22;7138;49.246;9.100;2022-08-19T04:04:18;19.70;99.90
14119;DHT22;7138;49.246;9.100;2022-08-19T04:06:44;19.60;99.90
14119;DHT22;7138;49.246;9.100;2022-08-19T04:09:12;19.60;99.90
14119;DHT22;7138;49.246;9.100;2022-08-19T04:11:41;19.60;99.90
14119;DHT22;7138;49.246;9.100;2022-08-19T04:14:12;19.60;99.90
14119;DHT22;7138;49.246;9.100;2022-08-19T04:16:41;19.50;99.90
14119;DHT22;7138;49.246;9.100;2022-08-19T04:19:09;19.50;99.90
14119;DHT22;7138;49.246;9.100;2022-08-19T04:21:36;19.40;99.90
14119;DHT22;7138;49.246;9.100;2022-08-19T04:24:03;19.40;99.90
14119;DHT22;7138;49.246;9.100;2022-08-19T04:26:32;19.40;99.90
14119;DHT22;7138;49.246;9.100;2022-08-19T04:29:00;19.40;99.90
14119;DHT22;7138;49.246;9.100;2022-08-19T04:31:31;19.50;99.90
14119;DHT22;7138;49.246;9.100;2022-08-19T04:34:04;19.40;99.90
14119;DHT22;7138;49.246;9.100;2022-08-19T04:36:34;19.40;99.90
14119;DHT22;7138;49.246;9.100;2022-08-19T04:39:05;19.50;99.90
14119;DHT22;7138;49.246;9.100;2022-08-19T04:41:33;19.50;99.90
14119;DHT22;7138;49.246;9.100;2022-08-19T04:44:19;19.50;99.90
14119;DHT22;7138;49.246;9.100;2022-08-19T04:46:47;19.60;99.90
14119;DHT22;7138;49.246;9.100;2022-08-19T04:49:14;19.60;99.90
14119;DHT22;7138;49.246;9.100;2022-08-19T04:51:45;19.60;99.90
14119;DHT22;7138;49.246;9.100;2022-08-19T04:54:16;19.60;99.90
14119;DHT22;7138;49.246;9.100;2022-08-19T04:56:43;19.60;99.90
14119;DHT22;7138;49.246;9.100;2022-08-19T04:59:09;19.70;99.90
14119;DHT22;7138;49.246;9.100;2022-08-19T05:01:36;19.70;99.90
14119;DHT22;7138;49.246;9.100;2022-08-19T05:04:05;19.70;99.90
14119;DHT22;7138;49.246;9.100;2022-08-19T05:06:33;19.70;99.90
14119;DHT22;7138;49.246;9.100;2022-08-19T05:09:00;19.70;99.90
14119;DHT22;7138;49.246;9.100;2022-08-19T05:11:29;19.70;99.90
14119;DHT22;7138;49.246;9.100;2022-08-19T05:13:57;19.70;99.90
14119;DHT22;7138;49.246;9.100;2022-08-19T05:16:24;19.70;99.90
14119;DHT22;7138;49.246;9.100;2022-08-19T05:18:52;19.70;99.90
14119;DHT22;7138;49.246;9.100;2022-08-19T05:21:39;19.70;99.90
14119;DHT22;7138;49.246;9.100;2022-08-19T05:24:25;19.80;99.90
14119;DHT22;7138;49.246;9.100;2022-08-19T05:26:53;19.80;99.90
14119;DHT22;7138;49.246;9.100;2022-08-19T05:29:23;19.80;99.90
14119;DHT22;7138;49.246;9.100;2022-08-19T05:31:52;19.80;99.90
14119;DHT22;7138;49.246;9.100;2022-08-19T05:34:19;19.80;99.90
14119;DHT22;7138;49.246;9.100;2022-08-19T05:36:49;19.90;99.90
14119;DHT22;7138;49.246;9.100;2022-08-19T05:39:19;19.90;99.90
14119;DHT22;7138;49.246;9.100;2022-08-19T05:41:48;19.90;99.90
14119;DHT22;7138;49.246;9.100;2022-08-19T05:44:16;20.00;99.90
14119;DHT22;7138;49.246;9.100;2022-08-19T05:46:43;19.90;99.90
14119;DHT22;7138;49.246;9.100;2022-08-19T05:49:13;20.00;99.90
14119;DHT22;7138;49.246;9.100;2022-08-19T05:51:41;20.00;99.90
14119;DHT22;7138;49.246;9.100;2022-08-19T05:54:08;20.00;99.90
14119;DHT22;7138;49.246;9.100;2022-08-19T05:56:37;20.00;99.90
14119;DHT22;7138;49.246;9.100;2022-08-19T05:59:04;20.00;99.90
14119;DHT22;7138;49.246;9.100;2022-08-19T06:01:34;20.00;99.90
14119;DHT22;7138;49.246;9.100;2022-08-19T06:04:00;20.00;99.90
14119;DHT22;7138;49.246;9.100;2022-08-19T06:06:26;20.10;99.90
14119;DHT22;7138;49.246;9.100;2022-08-19T06:08:52;20.10;99.90
14119;DHT22;7138;49.246;9.100;2022-08-19T06:11:23;20.10;99.90
14119;DHT22;7138;49.246;9.100;2022-08-19T06:14:00;20.20;99.90
14119;DHT22;7138;49.246;9.100;2022-08-19T06:16:27;20.30;99.90
14119;DHT22;7138;49.246;9.100;2022-08-19T06:18:59;20.20;99.90
14119;DHT22;7138;49.246;9.100;2022-08-19T06:21:28;20.20;99.90
14119;DHT22;7138;49.246;9.100;2022-08-19T06:23:57;20.30;99.90
14119;DHT22;7138;49.246;9.100;2022-08-19T06:26:25;20.30;99.90
14119;DHT22;7138;49.246;9.100;2022-08-19T06:28:52;20.40;99.90
14119;DHT22;7138;49.246;9.100;2022-08-19T06:31:20;20.40;99.90
14119;DHT22;7138;49.246;9.100;2022-08-19T06:33:48;20.40;99.90
14119;DHT22;7138;49.246;9.100;2022-08-19T06:36:20;20.40;99.90
14119;DHT22;7138;49.246;9.100;2022-08-19T06:38:47;20.40;99.90
14119;DHT22;7138;49.246;9.100;2022-08-19T06:41:13;20.40;99.90
14119;DHT22;7138;49.246;9.100;2022-08-19T06:43:40;20.30;99.90
14119;DHT22;7138;49.246;9.100;2022-08-19T06:46:13;20.40;99.90
14119;DHT22;7138;49.246;9.100;2022-08-19T06:48:40;20.50;99.90
14119;DHT22;7138;49.246;9.100;2022-08-19T06:51:07;20.50;99.90
14119;DHT22;7138;49.246;9.100;2022-08-19T06:53:33;20.60;99.90
14119;DHT22;7138;49.246;9.100;2022-08-19T06:55:59;20.60;99.90
14119;DHT22;7138;49.246;9.100;2022-08-19T06:58:29;20.70;99.90
14119;DHT22;7138;49.246;9.100;2022-08-19T07:00:59;20.70;99.90
14119;DHT22;7138;49.246;9.100;2022-08-19T07:03:27;20.60;99.90
14119;DHT22;7138;49.246;9.100;2022-08-19T07:05:54;20.70;99.90
14119;DHT22;7138;49.246;9.100;2022-08-19T07:08:20;20.80;99.90
14119;DHT22;7138;49.246;9.100;2022-08-19T07:10:46;21.00;99.90
14119;DHT22;7138;49.246;9.100;2022-08-19T07:13:13;20.90;99.90
14119;DHT22;7138;49.246;9.100;2022-08-19T07:15:39;21.00;99.90
14119;DHT22;7138;49.246;9.100;2022-08-19T07:18:07;21.20;99.90
14119;DHT22;7138;49.246;9.100;2022-08-19T07:20:33;21.40;99.90
14119;DHT22;7138;49.246;9.100;2022-08-19T07:22:58;21.50;99.90
14119;DHT22;7138;49.246;9.100;2022-08-19T07:25:24;21.50;99.90
14119;DHT22;7138;49.246;9.100;2022-08-19T07:27:50;21.50;99.90
14119;DHT22;7138;49.246;9.100;2022-08-19T07:30:16;21.60;99.90
14119;DHT22;7138;49.246;9.100;2022-08-19T07:32:42;21.50;99.90
14119;DHT22;7138;49.246;9.100;2022-08-19T07:35:10;21.60;99.90
14119;DHT22;7138;49.246;9.100;2022-08-19T07:37:36;21.80;99.90
14119;DHT22;7138;49.246;9.100;2022-08-19T07:40:04;21.70;99.90
14119;DHT22;7138;49.246;9.100;2022-08-19T07:42:31;21.80;99.90
14119;DHT22;7138;49.246;9.100;2022-08-19T07:44:57;22.00;99.90
14119;DHT22;7138;49.246;9.100;2022-08-19T07:47:24;22.00;99.90
14119;DHT22;7138;49.246;9.100;2022-08-19T07:49:49;22.20;99.90
14119;DHT22;7138;49.246;9.100;2022-08-19T07:52:16;22.30;99.90
14119;DHT22;7138;49.246;9.100;2022-08-19T07:54:43;22.60;99.90
14119;DHT22;7138;49.246;9.100;2022-08-19T07:57:09;22.70;99.90
14119;DHT22;7138;49.246;9.100;2022-08-19T07:59:35;22.90;99.90
14119;DHT22;7138;49.246;9.100;2022-08-19T08:02:02;22.70;99.90
14119;DHT22;7138;49.246;9.100;2022-08-19T08:04:29;22.60;99.90
14119;DHT22;7138;49.246;9.100;2022-08-19T08:07:16;22.40;99.90
14119;DHT22;7138;49.246;9.100;2022-08-19T08:10:04;22.40;99.90
14119;DHT22;7138;49.246;9.100;2022-08-19T08:12:34;22.40;99.90
14119;DHT22;7138;49.246;9.100;2022-08-19T08:15:08;22.60;99.90
14119;DHT22;7138;49.246;9.100;2022-08-19T08:17:38;22.80;99.90
14119;DHT22;7138;49.246;9.100;2022-08-19T08:20:05;23.00;99.90
14119;DHT22;7138;49.246;9.100;2022-08-19T08:22:33;23.10;99.90
14119;DHT22;7138;49.246;9.100;2022-08-19T08:25:21;23.00;99.90
14119;DHT22;7138;49.246;9.100;2022-08-19T08:27:49;23.00;99.90
14119;DHT22;7138;49.246;9.100;2022-08-19T08:30:18;23.20;99.90
14119;DHT22;7138;49.246;9.100;2022-08-19T08:32:45;23.20;99.90
14119;DHT22;7138;49.246;9.100;2022-08-19T08:35:13;22.80;99.90
14119;DHT22;7138;49.246;9.100;2022-08-19T08:37:43;22.80;99.90
14119;DHT22;7138;49.246;9.100;2022-08-19T08:40:18;22.70;99.90
14119;DHT22;7138;49.246;9.100;2022-08-19T08:42:53;23.10;99.90
14119;DHT22;7138;49.246;9.100;2022-08-19T08:45:27;23.10;99.90
14119;DHT22;7138;49.246;9.100;2022-08-19T08:47:56;23.00;99.90
14119;DHT22;7138;49.246;9.100;2022-08-19T08:50:29;23.10;99.90
14119;DHT22;7138;49.246;9.100;2022-08-19T08:53:05;23.30;99.90
14119;DHT22;7138;49.246;9.100;2022-08-19T08:55:33;23.50;99.90
14119;DHT22;7138;49.246;9.100;2022-08-19T08:58:03;23.40;99.90
14119;DHT22;7138;49.246;9.100;2022-08-19T09:00:33;23.40;99.90
14119;DHT22;7138;49.246;9.100;2022-08-19T09:03:02;23.40;99.90
14119;DHT22;7138;49.246;9.100;2022-08-19T09:05:38;23.40;99.90
14119;DHT22;7138;49.246;9.100;2022-08-19T09:08:17;23.10;99.90
14119;DHT22;7138;49.246;9.100;2022-08-19T09:10:55;23.00;99.90
14119;DHT22;7138;49.246;9.100;2022-08-19T09:13:28;23.10;99.90
14119;DHT22;7138;49.246;9.100;2022-08-19T09:16:07;23.10;99.90
14119;DHT22;7138;49.246;9.100;2022-08-19T09:18:42;23.20;99.90
14119;DHT22;7138;49.246;9.100;2022-08-19T09:21:11;23.30;99.90
14119;DHT22;7138;49.246;9.100;2022-08-19T09:23:39;23.40;99.90
14119;DHT22;7138;49.246;9.100;2022-08-19T09:26:11;23.50;99.90
14119;DHT22;7138;49.246;9.100;2022-08-19T09:28:39;23.70;99.90
14119;DHT22;7138;49.246;9.100;2022-08-19T09:31:08;23.60;99.90
14119;DHT22;7138;49.246;9.100;2022-08-19T09:33:34;23.50;99.90
14119;DHT22;7138;49.246;9.100;2022-08-19T09:36:05;23.50;99.90
14119;DHT22;7138;49.246;9.100;2022-08-19T09:38:33;23.50;99.90
14119;DHT22;7138;49.246;9.100;2022-08-19T09:41:03;23.60;99.90
14119;DHT22;7138;49.246;9.100;2022-08-19T09:43:30;23.80;99.90
14119;DHT22;7138;49.246;9.100;2022-08-19T09:45:56;23.90;99.90
14119;DHT22;7138;49.246;9.100;2022-08-19T09:48:22;24.00;99.90
14119;DHT22;7138;49.246;9.100;2022-08-19T09:50:48;23.90;99.90
14119;DHT22;7138;49.246;9.100;2022-08-19T09:53:16;24.10;99.90
14119;DHT22;7138;49.246;9.100;2022-08-19T09:55:42;24.20;99.90
14119;DHT22;7138;49.246;9.100;2022-08-19T09:58:10;24.50;99.90
14119;DHT22;7138;49.246;9.100;2022-08-19T10:00:37;24.40;99.90
14119;DHT22;7138;49.246;9.100;2022-08-19T10:03:03;24.60;99.90
14119;DHT22;7138;49.246;9.100;2022-08-19T10:05:29;25.10;99.90
14119;DHT22;7138;49.246;9.100;2022-08-19T10:08:14;25.50;99.90
14119;DHT22;7138;49.246;9.100;2022-08-19T10:10:41;25.50;99.90
14119;DHT22;7138;49.246;9.100;2022-08-19T10:13:14;25.40;99.90
14119;DHT22;7138;49.246;9.100;2022-08-19T10:15:41;25.40;99.90
14119;DHT22;7138;49.246;9.100;2022-08-19T10:18:07;25.30;99.90
14119;DHT22;7138;49.246;9.100;2022-08-19T10:20:33;25.50;99.90
14119;DHT22;7138;49.246;9.100;2022-08-19T10:23:01;25.30;99.90
14119;DHT22;7138;49.246;9.100;2022-08-19T10:25:27;25.20;99.90
14119;DHT22;7138;49.246;9.100;2022-08-19T10:27:53;25.10;99.90
14119;DHT22;7138;49.246;9.100;2022-08-19T10:30:20;25.40;99.90
14119;DHT22;7138;49.246;9.100;2022-08-19T10:32:46;25.70;99.90
14119;DHT22;7138;49.246;9.100;2022-08-19T10:35:13;25.70;99.90
14119;DHT22;7138;49.246;9.100;2022-08-19T10:37:39;25.50;99.90
14119;DHT22;7138;49.246;9.100;2022-08-19T10:40:07;25.50;99.90
14119;DHT22;7138;49.246;9.100;2022-08-19T10:42:36;26.10;99.90
14119;DHT22;7138;49.246;9.100;2022-08-19T10:45:02;25.90;99.90
14119;DHT22;7138;49.246;9.100;2022-08-19T10:47:32;26.40;99.90
14119;DHT22;7138;49.246;9.100;2022-08-19T10:49:58;26.20;99.90
14119;DHT22;7138;49.246;9.100;2022-08-19T10:52:46;26.30;99.90
14119;DHT22;7138;49.246;9.100;2022-08-19T10:55:13;25.70;99.90
14119;DHT22;7138;49.246;9.100;2022-08-19T10:57:58;25.60;99.90
14119;DHT22;7138;49.246;9.100;2022-08-19T11:00:24;25.80;99.90
14119;DHT22;7138;49.246;9.100;2022-08-19T11:02:52;26.00;99.90
14119;DHT22;7138;49.246;9.100;2022-08-19T11:05:18;26.70;99.90
14119;DHT22;7138;49.246;9.100;2022-08-19T11:07:45;27.00;99.90
14119;DHT22;7138;49.246;9.100;2022-08-19T11:10:12;26.50;99.90
14119;DHT22;7138;49.246;9.100;2022-08-19T11:12:40;26.60;99.90
14119;DHT22;7138;49.246;9.100;2022-08-19T11:15:07;26.80;99.90
14119;DHT22;7138;49.246;9.100;2022-08-19T11:17:36;27.00;99.90
14119;DHT22;7138;49.246;9.100;2022-08-19T11:20:08;26.50;99.90
14119;DHT22;7138;49.246;9.100;2022-08-19T11:22:35;26.50;99.90
14119;DHT22;7138;49.246;9.100;2022-08-19T11:25:01;26.60;99.90
14119;DHT22;7138;49.246;9.100;2022-08-19T11:27:28;26.30;99.90
14119;DHT22;7138;49.246;9.100;2022-08-19T11:29:54;26.10;99.90
14119;DHT22;7138;49.246;9.100;2022-08-19T11:32:20;26.00;99.90
14119;DHT22;7138;49.246;9.100;2022-08-19T11:34:46;25.70;99.90
14119;DHT22;7138;49.246;9.100;2022-08-19T11:37:13;25.50;99.90
14119;DHT22;7138;49.246;9.100;2022-08-19T11:39:39;25.70;99.90
14119;DHT22;7138;49.246;9.100;2022-08-19T11:42:06;25.70;99.90
14119;DHT22;7138;49.246;9.100;2022-08-19T11:44:51;26.10;99.90
14119;DHT22;7138;49.246;9.100;2022-08-19T11:47:20;26.50;99.90
14119;DHT22;7138;49.246;9.100;2022-08-19T11:49:47;26.60;99.90
14119;DHT22;7138;49.246;9.100;2022-08-19T11:52:14;26.80;99.90
14119;DHT22;7138;49.246;9.100;2022-08-19T11:54:40;26.50;99.90
14119;DHT22;7138;49.246;9.100;2022-08-19T11:57:06;26.30;99.90
14119;DHT22;7138;49.246;9.100;2022-08-19T11:59:32;26.40;99.90
14119;DHT22;7138;49.246;9.100;2022-08-19T12:01:58;26.60;99.90
14119;DHT22;7138;49.246;9.100;2022-08-19T12:04:24;26.80;99.90
14119;DHT22;7138;49.246;9.100;2022-08-19T12:06:50;26.70;99.90
14119;DHT22;7138;49.246;9.100;2022-08-19T12:09:17;26.70;99.90
14119;DHT22;7138;49.246;9.100;2022-08-19T12:11:44;26.30;99.90
14119;DHT22;7138;49.246;9.100;2022-08-19T12:14:11;26.20;99.90
14119;DHT22;7138;49.246;9.100;2022-08-19T12:16:39;25.80;99.90
14119;DHT22;7138;49.246;9.100;2022-08-19T12:19:06;25.70;99.90
14119;DHT22;7138;49.246;9.100;2022-08-19T12:21:34;25.70;99.90
14119;DHT22;7138;49.246;9.100;2022-08-19T12:24:03;25.70;99.90
14119;DHT22;7138;49.246;9.100;2022-08-19T12:26:31;26.00;99.90
14119;DHT22;7138;49.246;9.100;2022-08-19T12:28:58;25.90;99.90
14119;DHT22;7138;49.246;9.100;2022-08-19T12:31:24;25.90;99.90
14119;DHT22;7138;49.246;9.100;2022-08-19T12:33:51;26.10;99.90
14119;DHT22;7138;49.246;9.100;2022-08-19T12:36:17;26.40;99.90
14119;DHT22;7138;49.246;9.100;2022-08-19T12:38:44;26.60;99.90
14119;DHT22;7138;49.246;9.100;2022-08-19T12:41:12;26.70;99.90
14119;DHT22;7138;49.246;9.100;2022-08-19T12:43:41;26.60;99.90
14119;DHT22;7138;49.246;9.100;2022-08-19T12:46:08;26.70;99.90
14119;DHT22;7138;49.246;9.100;2022-08-19T12:48:36;26.60;99.90
14119;DHT22;7138;49.246;9.100;2022-08-19T12:51:08;26.40;99.90
14119;DHT22;7138;49.246;9.100;2022-08-19T12:53:37;26.20;99.90
14119;DHT22;7138;49.246;9.100;2022-08-19T12:56:04;26.10;99.90
14119;DHT22;7138;49.246;9.100;2022-08-19T12:58:30;26.00;99.90
14119;DHT22;7138;49.246;9.100;2022-08-19T13:00:59;25.80;99.90
14119;DHT22;7138;49.246;9.100;2022-08-19T13:03:24;25.80;99.90
14119;DHT22;7138;49.246;9.100;2022-08-19T13:05:54;25.70;99.90
14119;DHT22;7138;49.246;9.100;2022-08-19T13:08:20;25.80;99.90
14119;DHT22;7138;49.246;9.100;2022-08-19T13:10:46;26.00;99.90
14119;DHT22;7138;49.246;9.100;2022-08-19T13:13:12;26.20;99.90
14119;DHT22;7138;49.246;9.100;2022-08-19T13:15:40;26.20;99.90
14119;DHT22;7138;49.246;9.100;2022-08-19T13:18:09;26.20;99.90
14119;DHT22;7138;49.246;9.100;2022-08-19T13:20:36;26.20;99.90
14119;DHT22;7138;49.246;9.100;2022-08-19T13:23:05;26.40;99.90
14119;DHT22;7138;49.246;9.100;2022-08-19T13:25:31;26.70;99.90
14119;DHT22;7138;49.246;9.100;2022-08-19T13:27:59;26.80;99.90
14119;DHT22;7138;49.246;9.100;2022-08-19T13:30:27;27.20;99.90
14119;DHT22;7138;49.246;9.100;2022-08-19T13:33:12;27.30;99.90
14119;DHT22;7138;49.246;9.100;2022-08-19T13:35:44;27.70;99.90
14119;DHT22;7138;49.246;9.100;2022-08-19T13:38:13;27.90;99.90
14119;DHT22;7138;49.246;9.100;2022-08-19T13:40:40;28.10;99.90
14119;DHT22;7138;49.246;9.100;2022-08-19T13:43:06;28.40;99.90
14119;DHT22;7138;49.246;9.100;2022-08-19T13:45:35;28.40;99.90
14119;DHT22;7138;49.246;9.100;2022-08-19T13:48:02;28.90;99.90
14119;DHT22;7138;49.246;9.100;2022-08-19T13:50:39;28.40;99.90
14119;DHT22;7138;49.246;9.100;2022-08-19T13:53:07;28.70;99.90
14119;DHT22;7138;49.246;9.100;2022-08-19T13:55:34;28.80;99.90
14119;DHT22;7138;49.246;9.100;2022-08-19T13:58:01;28.20;99.90
14119;DHT22;7138;49.246;9.100;2022-08-19T14:00:31;27.90;99.90
14119;DHT22;7138;49.246;9.100;2022-08-19T14:02:59;27.70;99.90
14119;DHT22;7138;49.246;9.100;2022-08-19T14:05:27;27.30;99.90
14119;DHT22;7138;49.246;9.100;2022-08-19T14:07:56;27.10;99.90
14119;DHT22;7138;49.246;9.100;2022-08-19T14:10:23;27.10;99.90
14119;DHT22;7138;49.246;9.100;2022-08-19T14:12:52;27.00;99.90
14119;DHT22;7138;49.246;9.100;2022-08-19T14:15:20;26.80;99.90
14119;DHT22;7138;49.246;9.100;2022-08-19T14:17:49;26.80;99.90
14119;DHT22;7138;49.246;9.100;2022-08-19T14:20:15;26.70;99.90
14119;DHT22;7138;49.246;9.100;2022-08-19T14:22:43;26.70;99.90
14119;DHT22;7138;49.246;9.100;2022-08-19T14:25:14;26.60;99.90
14119;DHT22;7138;49.246;9.100;2022-08-19T14:27:41;26.60;99.90
14119;DHT22;7138;49.246;9.100;2022-08-19T14:30:09;26.60;99.90
14119;DHT22;7138;49.246;9.100;2022-08-19T14:32:36;26.60;99.90
14119;DHT22;7138;49.246;9.100;2022-08-19T14:35:03;26.50;99.90
14119;DHT22;7138;49.246;9.100;2022-08-19T14:37:29;26.50;99.90
14119;DHT22;7138;49.246;9.100;2022-08-19T14:39:55;26.50;99.90
14119;DHT22;7138;49.246;9.100;2022-08-19T14:42:22;26.60;99.90
14119;DHT22;7138;49.246;9.100;2022-08-19T14:44:48;26.60;99.90
14119;DHT22;7138;49.246;9.100;2022-08-19T14:47:14;26.70;99.80
14119;DHT22;7138;49.246;9.100;2022-08-19T14:49:40;26.80;98.80
14119;DHT22;7138;49.246;9.100;2022-08-19T14:52:06;26.80;99.20
14119;DHT22;7138;49.246;9.100;2022-08-19T14:54:32;26.90;99.70
14119;DHT22;7138;49.246;9.100;2022-08-19T14:56:58;26.90;99.10
14119;DHT22;7138;49.246;9.100;2022-08-19T14:59:25;27.00;99.10
14119;DHT22;7138;49.246;9.100;2022-08-19T15:01:51;27.20;99.20
14119;DHT22;7138;49.246;9.100;2022-08-19T15:04:17;27.40;99.10
14119;DHT22;7138;49.246;9.100;2022-08-19T15:06:43;27.30;99.10
14119;DHT22;7138;49.246;9.100;2022-08-19T15:09:09;27.30;99.00
14119;DHT22;7138;49.246;9.100;2022-08-19T15:11:35;27.30;98.50
14119;DHT22;7138;49.246;9.100;2022-08-19T15:14:02;27.30;98.20
14119;DHT22;7138;49.246;9.100;2022-08-19T15:16:32;27.40;98.80
14119;DHT22;7138;49.246;9.100;2022-08-19T15:18:59;27.50;99.60
14119;DHT22;7138;49.246;9.100;2022-08-19T15:21:28;27.50;98.90
14119;DHT22;7138;49.246;9.100;2022-08-19T15:23:56;27.70;99.20
14119;DHT22;7138;49.246;9.100;2022-08-19T15:26:24;27.60;98.10
14119;DHT22;7138;49.246;9.100;2022-08-19T15:28:53;27.50;97.40
14119;DHT22;7138;49.246;9.100;2022-08-19T15:31:20;27.70;97.60
14119;DHT22;7138;49.246;9.100;2022-08-19T15:33:51;27.60;96.10
14119;DHT22;7138;49.246;9.100;2022-08-19T15:36:16;27.50;96.00
14119;DHT22;7138;49.246;9.100;2022-08-19T15:38:42;27.40;96.30
14119;DHT22;7138;49.246;9.100;2022-08-19T15:41:17;27.30;96.20
14119;DHT22;7138;49.246;9.100;2022-08-19T15:43:51;27.30;96.20
14119;DHT22;7138;49.246;9.100;2022-08-19T15:46:21;27.30;97.00
14119;DHT22;7138;49.246;9.100;2022-08-19T15:48:51;27.30;97.10
14119;DHT22;7138;49.246;9.100;2022-08-19T15:51:18;27.40;96.70
